ANA217 RCTP-ROAH
Flight info
| Callsign | ANA217 |
|---|---|
| Flight time | 0h 51m |
| Altitude | 35000 |
| Route | KUDOS1A KUDOS R595 SEDKU Y573 MJC Y57 VELNO VELNOS |
| Aircraft | B77W/H-SDE1E2E3FGHIJ2J3J4J5M1RWXY/LB1D1 |
Departure
| Time | 2026-05-05 05:10 |
|---|---|
| Airport | Taiwan Taoyuan International Airport (RCTP) |
Arrival
| Time | 2026-05-05 06:02 |
|---|---|
| Airport | Naha International Airport (ROAH) |
| Time | Latitude | Longitude | Altitude | Speed | Heading |
|---|---|---|---|---|---|
| 2026-05-05 04:54 | 25.07546 | 121.23378 | 106 ft | 0 kts | 319° |
| 2026-05-05 04:57 | 25.07540 | 121.23384 | 107 ft | 2 kts | 318° |
| 2026-05-05 04:58 | 25.07531 | 121.23393 | 104 ft | 2 kts | 318° |
| 2026-05-05 04:58 | 25.07522 | 121.23402 | 106 ft | 2 kts | 317° |
| 2026-05-05 04:58 | 25.07512 | 121.23412 | 104 ft | 2 kts | 317° |
| 2026-05-05 04:58 | 25.07503 | 121.23421 | 105 ft | 2 kts | 316° |
| 2026-05-05 04:59 | 25.07496 | 121.23432 | 106 ft | 2 kts | 300° |
| 2026-05-05 04:59 | 25.07489 | 121.23444 | 106 ft | 2 kts | 290° |
| 2026-05-05 04:59 | 25.07485 | 121.23457 | 105 ft | 2 kts | 288° |
| 2026-05-05 04:59 | 25.07482 | 121.23470 | 106 ft | 2 kts | 277° |
| 2026-05-05 05:00 | 25.07482 | 121.23484 | 106 ft | 2 kts | 242° |
| 2026-05-05 05:00 | 25.07484 | 121.23489 | 106 ft | 0 kts | 231° |
| 2026-05-05 05:02 | 25.07483 | 121.23488 | 110 ft | 1 kts | 231° |
| 2026-05-05 05:03 | 25.07464 | 121.23462 | 110 ft | 8 kts | 231° |
| 2026-05-05 05:03 | 25.07409 | 121.23390 | 109 ft | 16 kts | 229° |
| 2026-05-05 05:03 | 25.07335 | 121.23295 | 109 ft | 16 kts | 229° |
| 2026-05-05 05:03 | 25.07271 | 121.23216 | 109 ft | 10 kts | 229° |
| 2026-05-05 05:04 | 25.07213 | 121.23187 | 112 ft | 10 kts | 172° |
| 2026-05-05 05:04 | 25.07156 | 121.23226 | 111 ft | 10 kts | 139° |
| 2026-05-05 05:04 | 25.07100 | 121.23269 | 111 ft | 10 kts | 165° |
| 2026-05-05 05:04 | 25.07040 | 121.23242 | 114 ft | 10 kts | 224° |
| 2026-05-05 05:05 | 25.06994 | 121.23186 | 111 ft | 10 kts | 228° |
| 2026-05-05 05:05 | 25.06938 | 121.23116 | 113 ft | 14 kts | 229° |
| 2026-05-05 05:05 | 25.06873 | 121.23035 | 113 ft | 14 kts | 229° |
| 2026-05-05 05:05 | 25.06809 | 121.22954 | 112 ft | 14 kts | 229° |
| 2026-05-05 05:06 | 25.06746 | 121.22872 | 114 ft | 14 kts | 231° |
| 2026-05-05 05:06 | 25.06683 | 121.22790 | 113 ft | 14 kts | 229° |
| 2026-05-05 05:06 | 25.06619 | 121.22710 | 115 ft | 14 kts | 229° |
| 2026-05-05 05:06 | 25.06555 | 121.22629 | 114 ft | 14 kts | 229° |
| 2026-05-05 05:07 | 25.06490 | 121.22548 | 114 ft | 14 kts | 229° |
| 2026-05-05 05:07 | 25.06426 | 121.22467 | 116 ft | 14 kts | 229° |
| 2026-05-05 05:07 | 25.06361 | 121.22386 | 117 ft | 14 kts | 229° |
| 2026-05-05 05:07 | 25.06298 | 121.22328 | 117 ft | 12 kts | 192° |
| 2026-05-05 05:08 | 25.06248 | 121.22349 | 118 ft | 2 kts | 138° |
| 2026-05-05 05:08 | 25.06247 | 121.22350 | 118 ft | 0 kts | 138° |
| 2026-05-05 05:09 | 25.06218 | 121.22379 | 119 ft | 10 kts | 138° |
| 2026-05-05 05:09 | 25.06173 | 121.22437 | 120 ft | 10 kts | 104° |
| 2026-05-05 05:09 | 25.06204 | 121.22508 | 119 ft | 11 kts | 49° |
| 2026-05-05 05:09 | 25.06285 | 121.22610 | 116 ft | 33 kts | 49° |
| 2026-05-05 05:10 | 25.06650 | 121.23069 | 114 ft | 133 kts | 49° |
| 2026-05-05 05:10 | 25.07423 | 121.24068 | 551 ft | 186 kts | 49° |
| 2026-05-05 05:10 | 25.08178 | 121.25052 | 2080 ft | 164 kts | 51° |
| 2026-05-05 05:10 | 25.08937 | 121.26038 | 2923 ft | 178 kts | 52° |
| 2026-05-05 05:11 | 25.09820 | 121.27196 | 3207 ft | 216 kts | 52° |
| 2026-05-05 05:11 | 25.10862 | 121.28564 | 3733 ft | 243 kts | 52° |
| 2026-05-05 05:11 | 25.12003 | 121.30004 | 4598 ft | 257 kts | 50° |
| 2026-05-05 05:11 | 25.13270 | 121.31470 | 5424 ft | 272 kts | 47° |
| 2026-05-05 05:12 | 25.14637 | 121.33024 | 6159 ft | 290 kts | 46° |
| 2026-05-05 05:12 | 25.16079 | 121.34662 | 6990 ft | 300 kts | 45° |
| 2026-05-05 05:12 | 25.17534 | 121.36321 | 8035 ft | 305 kts | 45° |
| 2026-05-05 05:12 | 25.19033 | 121.38034 | 8902 ft | 315 kts | 44° |
| 2026-05-05 05:13 | 25.20576 | 121.39803 | 9854 ft | 323 kts | 44° |
| 2026-05-05 05:13 | 25.22137 | 121.41597 | 10632 ft | 335 kts | 43° |
| 2026-05-05 05:13 | 25.23820 | 121.43530 | 10971 ft | 365 kts | 44° |
| 2026-05-05 05:13 | 25.25658 | 121.45643 | 11198 ft | 397 kts | 44° |
| 2026-05-05 05:14 | 25.27634 | 121.47921 | 11707 ft | 417 kts | 44° |
| 2026-05-05 05:14 | 25.29442 | 121.50468 | 12345 ft | 430 kts | 62° |
| 2026-05-05 05:14 | 25.30301 | 121.53646 | 13215 ft | 438 kts | 86° |
| 2026-05-05 05:14 | 25.30167 | 121.57006 | 14169 ft | 439 kts | 103° |
| 2026-05-05 05:15 | 25.29363 | 121.60266 | 15061 ft | 440 kts | 114° |
| 2026-05-05 05:15 | 25.28209 | 121.63369 | 15913 ft | 444 kts | 119° |
| 2026-05-05 05:15 | 25.26872 | 121.66468 | 16758 ft | 449 kts | 121° |
| 2026-05-05 05:15 | 25.25476 | 121.69593 | 17587 ft | 456 kts | 121° |
| 2026-05-05 05:16 | 25.24072 | 121.72774 | 18362 ft | 464 kts | 120° |
| 2026-05-05 05:16 | 25.22677 | 121.76023 | 19041 ft | 470 kts | 119° |
| 2026-05-05 05:16 | 25.21311 | 121.79277 | 19772 ft | 474 kts | 119° |
| 2026-05-05 05:16 | 25.19931 | 121.82605 | 20512 ft | 479 kts | 118° |
| 2026-05-05 05:17 | 25.18539 | 121.85978 | 21239 ft | 484 kts | 119° |
| 2026-05-05 05:17 | 25.17136 | 121.89374 | 21933 ft | 489 kts | 119° |
| 2026-05-05 05:17 | 25.15715 | 121.92805 | 22626 ft | 493 kts | 119° |
| 2026-05-05 05:17 | 25.14274 | 121.96273 | 23313 ft | 498 kts | 119° |
| 2026-05-05 05:18 | 25.12981 | 121.99859 | 23887 ft | 508 kts | 109° |
| 2026-05-05 05:18 | 25.12481 | 122.03765 | 24415 ft | 519 kts | 95° |
| 2026-05-05 05:18 | 25.12358 | 122.07700 | 24972 ft | 522 kts | 95° |
| 2026-05-05 05:18 | 25.12129 | 122.11721 | 25483 ft | 525 kts | 97° |
| 2026-05-05 05:19 | 25.11801 | 122.15761 | 25974 ft | 530 kts | 98° |
| 2026-05-05 05:19 | 25.11425 | 122.19820 | 26482 ft | 534 kts | 99° |
| 2026-05-05 05:19 | 25.11044 | 122.23912 | 26998 ft | 538 kts | 98° |
| 2026-05-05 05:19 | 25.10676 | 122.28037 | 27485 ft | 542 kts | 98° |
| 2026-05-05 05:20 | 25.10308 | 122.32200 | 27966 ft | 546 kts | 98° |
| 2026-05-05 05:20 | 25.09921 | 122.36381 | 28425 ft | 550 kts | 99° |
| 2026-05-05 05:20 | 25.09523 | 122.40543 | 28852 ft | 554 kts | 99° |
| 2026-05-05 05:20 | 25.09112 | 122.44781 | 29260 ft | 558 kts | 99° |
| 2026-05-05 05:21 | 25.08696 | 122.49057 | 29649 ft | 562 kts | 99° |
| 2026-05-05 05:21 | 25.08277 | 122.53356 | 29990 ft | 565 kts | 99° |
| 2026-05-05 05:21 | 25.07857 | 122.57687 | 30383 ft | 567 kts | 99° |
| 2026-05-05 05:21 | 25.07437 | 122.62016 | 30844 ft | 566 kts | 99° |
| 2026-05-05 05:22 | 25.07020 | 122.66321 | 31349 ft | 564 kts | 99° |
| 2026-05-05 05:22 | 25.06606 | 122.70573 | 31855 ft | 563 kts | 99° |
| 2026-05-05 05:22 | 25.06186 | 122.74866 | 32340 ft | 562 kts | 99° |
| 2026-05-05 05:22 | 25.05766 | 122.79152 | 32800 ft | 562 kts | 99° |
| 2026-05-05 05:23 | 25.05344 | 122.83429 | 33259 ft | 561 kts | 99° |
| 2026-05-05 05:23 | 25.04921 | 122.87708 | 33730 ft | 560 kts | 99° |
| 2026-05-05 05:23 | 25.04498 | 122.91981 | 34180 ft | 559 kts | 99° |
| 2026-05-05 05:23 | 25.04074 | 122.96247 | 34606 ft | 559 kts | 99° |
| 2026-05-05 05:24 | 25.03650 | 123.00507 | 35002 ft | 558 kts | 99° |
| 2026-05-05 05:24 | 25.02770 | 123.09031 | 35029 ft | 558 kts | 99° |
| 2026-05-05 05:25 | 25.01880 | 123.17526 | 35030 ft | 556 kts | 99° |
| 2026-05-05 05:25 | 25.01013 | 123.25949 | 35042 ft | 556 kts | 99° |
| 2026-05-05 05:26 | 25.00153 | 123.34423 | 35032 ft | 556 kts | 99° |
| 2026-05-05 05:26 | 24.99286 | 123.42918 | 35050 ft | 557 kts | 99° |
| 2026-05-05 05:27 | 24.98407 | 123.51432 | 35022 ft | 559 kts | 99° |
| 2026-05-05 05:27 | 24.97090 | 123.64108 | 35038 ft | 555 kts | 99° |
| 2026-05-05 05:28 | 24.96207 | 123.72546 | 35075 ft | 556 kts | 99° |
| 2026-05-05 05:28 | 24.95305 | 123.81091 | 35036 ft | 561 kts | 99° |
| 2026-05-05 05:29 | 24.94403 | 123.89632 | 35023 ft | 559 kts | 99° |
| 2026-05-05 05:29 | 24.93502 | 123.98111 | 35029 ft | 556 kts | 99° |
| 2026-05-05 05:30 | 24.92566 | 124.06570 | 35036 ft | 555 kts | 100° |
| 2026-05-05 05:30 | 24.91581 | 124.14948 | 35041 ft | 556 kts | 100° |
| 2026-05-05 05:31 | 24.90581 | 124.23409 | 35053 ft | 558 kts | 100° |
| 2026-05-05 05:31 | 24.89581 | 124.31915 | 35050 ft | 561 kts | 100° |
| 2026-05-05 05:32 | 24.88575 | 124.40471 | 35028 ft | 563 kts | 99° |
| 2026-05-05 05:32 | 24.87564 | 124.49032 | 35044 ft | 563 kts | 99° |
| 2026-05-05 05:33 | 24.86552 | 124.57541 | 35044 ft | 564 kts | 99° |
| 2026-05-05 05:33 | 24.85529 | 124.66106 | 35048 ft | 564 kts | 99° |
| 2026-05-05 05:34 | 24.84501 | 124.74670 | 35043 ft | 564 kts | 99° |
| 2026-05-05 05:34 | 24.83467 | 124.83240 | 35043 ft | 564 kts | 99° |
| 2026-05-05 05:35 | 24.82423 | 124.91798 | 35026 ft | 563 kts | 100° |
| 2026-05-05 05:35 | 24.81356 | 125.00310 | 35024 ft | 563 kts | 100° |
| 2026-05-05 05:36 | 24.80279 | 125.08873 | 35021 ft | 563 kts | 100° |
| 2026-05-05 05:36 | 24.79209 | 125.17381 | 35017 ft | 564 kts | 100° |
| 2026-05-05 05:37 | 24.78583 | 125.25979 | 35041 ft | 565 kts | 85° |
| 2026-05-05 05:37 | 24.79235 | 125.30240 | 35054 ft | 564 kts | 74° |
| 2026-05-05 05:37 | 24.80486 | 125.34309 | 35049 ft | 561 kts | 63° |
| 2026-05-05 05:38 | 24.84411 | 125.41562 | 35058 ft | 554 kts | 53° |
| 2026-05-05 05:38 | 24.88640 | 125.48699 | 35055 ft | 557 kts | 53° |
| 2026-05-05 05:39 | 24.92822 | 125.55936 | 35049 ft | 561 kts | 54° |
| 2026-05-05 05:39 | 24.96930 | 125.63202 | 35051 ft | 562 kts | 54° |
| 2026-05-05 05:40 | 25.01048 | 125.70530 | 35067 ft | 561 kts | 54° |
| 2026-05-05 05:40 | 25.03126 | 125.74224 | 34307 ft | 574 kts | 54° |
| 2026-05-05 05:40 | 25.04526 | 125.76709 | 33816 ft | 570 kts | 54° |
| 2026-05-05 05:41 | 25.07256 | 125.81573 | 32889 ft | 545 kts | 54° |
| 2026-05-05 05:41 | 25.08563 | 125.83905 | 32479 ft | 534 kts | 54° |
| 2026-05-05 05:41 | 25.11129 | 125.88479 | 31700 ft | 514 kts | 55° |
| 2026-05-05 05:41 | 25.12995 | 125.91798 | 31171 ft | 517 kts | 55° |
| 2026-05-05 05:42 | 25.14288 | 125.94093 | 30805 ft | 523 kts | 56° |
| 2026-05-05 05:42 | 25.16871 | 125.98681 | 30030 ft | 535 kts | 56° |
| 2026-05-05 05:42 | 25.18174 | 126.01002 | 29580 ft | 533 kts | 56° |
| 2026-05-05 05:42 | 25.20121 | 126.04478 | 28935 ft | 528 kts | 56° |
| 2026-05-05 05:43 | 25.22042 | 126.07916 | 28346 ft | 522 kts | 57° |
| 2026-05-05 05:43 | 25.23943 | 126.11320 | 27760 ft | 517 kts | 57° |
| 2026-05-05 05:43 | 25.25818 | 126.14677 | 27196 ft | 511 kts | 57° |
| 2026-05-05 05:43 | 25.27676 | 126.18005 | 26634 ft | 506 kts | 57° |
| 2026-05-05 05:44 | 25.29516 | 126.21302 | 26071 ft | 502 kts | 57° |
| 2026-05-05 05:44 | 25.31317 | 126.24532 | 25527 ft | 497 kts | 57° |
| 2026-05-05 05:44 | 25.33127 | 126.27779 | 24954 ft | 494 kts | 57° |
| 2026-05-05 05:44 | 25.34925 | 126.31008 | 24407 ft | 491 kts | 58° |
| 2026-05-05 05:45 | 25.36718 | 126.34228 | 23850 ft | 490 kts | 58° |
| 2026-05-05 05:45 | 25.38505 | 126.37442 | 23176 ft | 488 kts | 58° |
| 2026-05-05 05:45 | 25.40275 | 126.40630 | 22591 ft | 484 kts | 58° |
| 2026-05-05 05:45 | 25.42032 | 126.43795 | 22027 ft | 479 kts | 58° |
| 2026-05-05 05:46 | 25.43748 | 126.46888 | 21473 ft | 474 kts | 58° |
| 2026-05-05 05:46 | 25.45465 | 126.49983 | 20931 ft | 470 kts | 57° |
| 2026-05-05 05:46 | 25.47169 | 126.53057 | 20393 ft | 465 kts | 57° |
| 2026-05-05 05:46 | 25.48855 | 126.56106 | 19842 ft | 462 kts | 57° |
| 2026-05-05 05:47 | 25.50519 | 126.59133 | 19301 ft | 455 kts | 57° |
| 2026-05-05 05:47 | 25.52138 | 126.62087 | 18769 ft | 441 kts | 57° |
| 2026-05-05 05:47 | 25.53708 | 126.64953 | 18236 ft | 440 kts | 57° |
| 2026-05-05 05:47 | 25.55293 | 126.67847 | 17649 ft | 439 kts | 57° |
| 2026-05-05 05:48 | 25.56876 | 126.70737 | 17110 ft | 436 kts | 57° |
| 2026-05-05 05:48 | 25.58449 | 126.73611 | 16555 ft | 434 kts | 58° |
| 2026-05-05 05:48 | 25.60013 | 126.76469 | 16044 ft | 432 kts | 58° |
| 2026-05-05 05:48 | 25.61569 | 126.79315 | 15517 ft | 430 kts | 58° |
| 2026-05-05 05:49 | 25.63113 | 126.82140 | 15011 ft | 428 kts | 58° |
| 2026-05-05 05:49 | 25.64656 | 126.84967 | 14486 ft | 427 kts | 58° |
| 2026-05-05 05:49 | 25.66174 | 126.87747 | 13943 ft | 427 kts | 58° |
| 2026-05-05 05:49 | 25.67715 | 126.90572 | 13390 ft | 425 kts | 58° |
| 2026-05-05 05:50 | 25.69227 | 126.93345 | 13155 ft | 414 kts | 58° |
| 2026-05-05 05:50 | 25.70709 | 126.96066 | 13076 ft | 410 kts | 58° |
| 2026-05-05 05:50 | 25.72160 | 126.98731 | 12851 ft | 405 kts | 58° |
| 2026-05-05 05:50 | 25.73608 | 127.01394 | 12464 ft | 401 kts | 58° |
| 2026-05-05 05:51 | 25.75031 | 127.04011 | 12318 ft | 388 kts | 59° |
| 2026-05-05 05:51 | 25.76402 | 127.06533 | 12235 ft | 375 kts | 59° |
| 2026-05-05 05:51 | 25.77725 | 127.08971 | 12140 ft | 362 kts | 59° |
| 2026-05-05 05:51 | 25.78995 | 127.11311 | 12040 ft | 351 kts | 59° |
| 2026-05-05 05:52 | 25.80239 | 127.13604 | 11893 ft | 343 kts | 59° |
| 2026-05-05 05:52 | 25.81461 | 127.15857 | 11673 ft | 337 kts | 59° |
| 2026-05-05 05:52 | 25.82671 | 127.18090 | 11366 ft | 335 kts | 59° |
| 2026-05-05 05:52 | 25.83856 | 127.20276 | 11055 ft | 333 kts | 59° |
| 2026-05-05 05:53 | 25.85043 | 127.22470 | 10793 ft | 329 kts | 59° |
| 2026-05-05 05:53 | 25.86215 | 127.24636 | 10538 ft | 326 kts | 59° |
| 2026-05-05 05:53 | 25.87382 | 127.26793 | 10243 ft | 324 kts | 59° |
| 2026-05-05 05:53 | 25.88542 | 127.28937 | 9972 ft | 322 kts | 59° |
| 2026-05-05 05:54 | 25.89644 | 127.31059 | 9635 ft | 316 kts | 66° |
| 2026-05-05 05:54 | 25.90379 | 127.33357 | 9211 ft | 316 kts | 77° |
| 2026-05-05 05:54 | 25.90906 | 127.35714 | 8913 ft | 313 kts | 79° |
| 2026-05-05 05:54 | 25.91389 | 127.38025 | 8503 ft | 304 kts | 78° |
| 2026-05-05 05:55 | 25.91878 | 127.40305 | 7891 ft | 303 kts | 78° |
| 2026-05-05 05:55 | 25.92381 | 127.42575 | 7345 ft | 300 kts | 77° |
| 2026-05-05 05:55 | 25.92890 | 127.44809 | 6836 ft | 295 kts | 77° |
| 2026-05-05 05:55 | 25.93066 | 127.45576 | 6647 ft | 294 kts | 77° |
| 2026-05-05 05:56 | 25.93573 | 127.47764 | 6123 ft | 290 kts | 77° |
| 2026-05-05 05:56 | 25.94076 | 127.49918 | 5618 ft | 284 kts | 77° |
| 2026-05-05 05:56 | 25.94571 | 127.52031 | 5060 ft | 281 kts | 77° |
| 2026-05-05 05:56 | 25.95060 | 127.54118 | 4557 ft | 275 kts | 77° |
| 2026-05-05 05:57 | 25.95537 | 127.56157 | 4039 ft | 269 kts | 77° |
| 2026-05-05 05:57 | 25.96072 | 127.58123 | 3690 ft | 261 kts | 65° |
| 2026-05-05 05:57 | 25.97204 | 127.59617 | 3459 ft | 255 kts | 36° |
| 2026-05-05 05:57 | 25.98730 | 127.60557 | 3214 ft | 248 kts | 28° |
| 2026-05-05 05:58 | 26.00259 | 127.61424 | 2990 ft | 245 kts | 28° |
| 2026-05-05 05:58 | 26.01781 | 127.62297 | 2747 ft | 246 kts | 28° |
| 2026-05-05 05:58 | 26.03303 | 127.63171 | 2476 ft | 245 kts | 29° |
| 2026-05-05 05:58 | 26.04826 | 127.63949 | 2171 ft | 235 kts | 15° |
| 2026-05-05 05:59 | 26.06359 | 127.64017 | 2036 ft | 213 kts | 357° |
| 2026-05-05 05:59 | 26.07770 | 127.63851 | 1842 ft | 197 kts | 358° |
| 2026-05-05 05:59 | 26.09104 | 127.63766 | 1673 ft | 187 kts | 360° |
| 2026-05-05 05:59 | 26.10368 | 127.63707 | 1448 ft | 175 kts | 0° |
| 2026-05-05 06:00 | 26.11550 | 127.63653 | 1288 ft | 173 kts | 0° |
| 2026-05-05 06:00 | 26.12711 | 127.63597 | 1023 ft | 158 kts | 0° |
| 2026-05-05 06:00 | 26.13766 | 127.63549 | 824 ft | 146 kts | 0° |
| 2026-05-05 06:00 | 26.14741 | 127.63503 | 643 ft | 135 kts | 0° |
| 2026-05-05 06:01 | 26.15684 | 127.63458 | 483 ft | 137 kts | 359° |
| 2026-05-05 06:01 | 26.16644 | 127.63411 | 304 ft | 139 kts | 0° |
| 2026-05-05 06:01 | 26.17598 | 127.63374 | 119 ft | 136 kts | 358° |
| 2026-05-05 06:01 | 26.18516 | 127.63330 | 35 ft | 124 kts | 359° |
| 2026-05-05 06:02 | 26.19118 | 127.63300 | 32 ft | 46 kts | 358° |